Time;durP1;ratioP1;P1;durP2;ratioP2;P2;SDS_P1;SDS_P2;PMS_P1;PMS_P2;Temp;Humidity;BMP_temperature;BMP_pressure;BME280_temperature;BME280_humidity;BME280_pressure;Samples;Min_cycle;Max_cycle;Signal;HPM_P1;HPM_P2
2023/06/21 00:00:45;;;;;;;15.80;9.60;;;;;;;23.52;71.92;100344.34;4151590;28;20048;-67
2023/06/21 00:02:50;;;;;;;11.35;9.98;;;;;;;23.50;72.07;100340.91;4148281;28;20484;-67
2023/06/21 00:04:55;;;;;;;11.85;9.73;;;;;;;23.48;71.91;100334.78;4158602;28;20045;-67
2023/06/21 00:06:58;;;;;;;12.23;9.68;;;;;;;23.45;71.92;100332.28;4150084;28;20165;-67
2023/06/21 00:09:03;;;;;;;12.80;9.15;;;;;;;23.42;71.97;100335.06;4147783;28;20134;-67
2023/06/21 00:11:07;;;;;;;12.80;9.65;;;;;;;23.46;72.12;100336.66;4148190;28;20030;-67
2023/06/21 00:13:10;;;;;;;11.43;9.10;;;;;;;23.52;71.99;100331.97;4166495;28;20124;-67
2023/06/21 00:15:13;;;;;;;11.48;9.95;;;;;;;23.58;71.84;100329.97;4150270;28;20503;-67
2023/06/21 00:17:16;;;;;;;13.68;8.73;;;;;;;23.67;71.20;100330.47;4147108;28;20068;-67
2023/06/21 00:19:19;;;;;;;9.52;8.45;;;;;;;23.70;70.94;100334.78;4147599;28;20041;-67
2023/06/21 00:21:22;;;;;;;12.83;9.00;;;;;;;23.61;71.31;100341.34;4149685;28;20049;-67
2023/06/21 00:23:25;;;;;;;9.68;8.02;;;;;;;23.58;71.62;100341.44;4148551;28;20289;-67
2023/06/21 00:25:28;;;;;;;15.40;9.60;;;;;;;23.63;71.19;100338.63;4150157;28;20074;-67
2023/06/21 00:27:32;;;;;;;13.10;8.38;;;;;;;23.70;70.87;100343.59;4151403;28;20034;-67
2023/06/21 00:29:36;;;;;;;11.82;9.13;;;;;;;23.75;70.51;100337.22;4124843;28;20587;-67
2023/06/21 00:31:39;;;;;;;13.90;8.63;;;;;;;23.69;70.72;100336.56;4148410;28;20125;-68
2023/06/21 00:33:41;;;;;;;14.88;9.80;;;;;;;23.66;70.84;100342.00;4149657;28;20136;-67
2023/06/21 00:35:44;;;;;;;12.75;9.90;;;;;;;23.55;71.05;100346.88;4145056;28;20858;-67
2023/06/21 00:37:47;;;;;;;12.52;10.32;;;;;;;23.42;71.23;100337.72;4161537;28;20045;-67
2023/06/21 00:39:50;;;;;;;11.88;9.82;;;;;;;23.35;71.53;100343.28;4143690;28;20132;-67
2023/06/21 00:41:54;;;;;;;14.18;10.80;;;;;;;23.28;71.74;100344.44;4144696;28;20507;-67
2023/06/21 00:43:58;;;;;;;13.13;8.82;;;;;;;23.29;71.81;100351.47;4147144;28;20088;-67
2023/06/21 00:46:02;;;;;;;12.13;9.00;;;;;;;23.29;71.75;100346.19;4145636;28;20050;-67
2023/06/21 00:48:05;;;;;;;10.52;9.13;;;;;;;23.41;71.50;100354.53;4145150;28;20041;-67
2023/06/21 00:50:09;;;;;;;10.40;8.40;;;;;;;23.51;71.13;100362.09;4159888;28;20103;-67
2023/06/21 00:52:13;;;;;;;11.82;8.70;;;;;;;23.56;70.81;100369.00;4160888;28;20124;-67
2023/06/21 00:54:17;;;;;;;11.98;10.23;;;;;;;23.52;70.86;100369.13;4145547;28;20054;-67
2023/06/21 00:56:22;;;;;;;12.43;9.73;;;;;;;23.45;70.90;100372.06;4145390;28;20042;-67
2023/06/21 00:58:25;;;;;;;10.35;8.90;;;;;;;23.40;71.10;100364.31;4143951;28;20127;-66
2023/06/21 01:00:30;;;;;;;15.53;10.63;;;;;;;23.41;70.96;100379.31;4145080;28;20052;-67
2023/06/21 01:02:34;;;;;;;13.32;9.52;;;;;;;23.40;70.62;100379.38;4145948;28;20030;-67
2023/06/21 01:04:37;;;;;;;11.80;9.38;;;;;;;23.39;70.94;100388.25;4144453;28;20554;-67
2023/06/21 01:06:48;;;;;;;15.23;10.93;;;;;;;23.32;71.34;100393.81;4160807;28;20037;-67
2023/06/21 01:08:57;;;;;;;14.00;9.50;;;;;;;23.24;71.59;100406.50;4142756;28;20518;-67
2023/06/21 01:11:10;;;;;;;10.10;8.65;;;;;;;23.24;71.70;100417.09;4158137;28;20088;-67
2023/06/21 01:13:26;;;;;;;14.13;8.88;;;;;;;23.32;71.43;100409.72;4145949;28;20061;-67
2023/06/21 01:15:35;;;;;;;18.13;10.10;;;;;;;23.35;71.61;100409.59;4145676;28;20045;-67
2023/06/21 01:17:41;;;;;;;12.95;10.75;;;;;;;23.30;71.90;100408.03;4143788;28;20464;-67
2023/06/21 01:19:50;;;;;;;15.07;12.80;;;;;;;23.26;72.60;100394.06;4146017;28;20049;-67
2023/06/21 01:21:55;;;;;;;21.40;13.60;;;;;;;23.30;71.79;100386.81;4144206;28;20045;-67
2023/06/21 01:24:17;;;;;;;11.82;9.35;;;;;;;23.21;71.92;100384.53;4144408;28;20068;-67
2023/06/21 01:26:49;;;;;;;10.90;8.90;;;;;;;23.26;71.89;100379.91;4140292;28;20044;-67
2023/06/21 01:29:12;;;;;;;14.00;9.93;;;;;;;23.26;72.08;100391.41;4144603;28;20061;-67
2023/06/21 01:31:17;;;;;;;13.70;10.68;;;;;;;23.28;72.18;100402.81;4142600;28;20065;-67
2023/06/21 01:33:20;;;;;;;13.70;11.70;;;;;;;23.27;72.02;100406.38;4144646;28;20034;-67
2023/06/21 01:35:24;;;;;;;17.35;11.55;;;;;;;23.23;72.15;100404.78;4144534;28;20127;-67
2023/06/21 01:37:27;;;;;;;12.93;11.23;;;;;;;23.13;72.45;100409.56;4144281;28;20041;-67
2023/06/21 01:39:30;;;;;;;11.77;10.15;;;;;;;23.09;72.63;100401.78;4143822;28;20490;-66
2023/06/21 01:41:33;;;;;;;13.93;11.57;;;;;;;23.05;73.04;100398.34;4143690;28;20076;-67
2023/06/21 01:43:36;;;;;;;14.13;11.68;;;;;;;23.02;73.01;100394.03;4144866;28;20069;-67
2023/06/21 01:45:40;;;;;;;12.75;11.02;;;;;;;23.02;72.90;100396.69;4142459;28;20080;-67
2023/06/21 01:47:45;;;;;;;13.57;11.18;;;;;;;23.02;72.99;100394.03;4141197;28;20042;-67
2023/06/21 01:49:48;;;;;;;14.80;10.05;;;;;;;23.05;72.85;100386.91;4143034;28;20044;-67
2023/06/21 01:51:52;;;;;;;17.53;10.33;;;;;;;23.10;72.81;100395.53;4141733;28;20049;-66
2023/06/21 01:53:56;;;;;;;14.25;9.98;;;;;;;23.22;72.18;100396.84;4144272;28;20344;-67
2023/06/21 01:56:01;;;;;;;12.27;8.85;;;;;;;23.20;72.18;100393.41;4145778;28;20046;-66
2023/06/21 01:58:04;;;;;;;11.98;10.20;;;;;;;23.15;72.22;100390.94;4149780;28;20046;-66
2023/06/21 02:00:15;;;;;;;13.63;12.05;;;;;;;23.16;72.49;100392.69;4148056;28;20065;-66
2023/06/21 02:02:23;;;;;;;15.07;13.25;;;;;;;23.06;72.65;100397.44;4145200;28;20041;-66
2023/06/21 02:04:29;;;;;;;15.85;12.98;;;;;;;22.98;72.84;100394.22;4144529;28;20050;-66
2023/06/21 02:06:36;;;;;;;15.70;11.57;;;;;;;22.92;73.26;100395.31;4146199;28;20058;-66
2023/06/21 02:08:39;;;;;;;11.27;10.18;;;;;;;22.92;73.39;100400.63;4146137;28;20552;-66
2023/06/21 02:10:43;;;;;;;12.02;10.50;;;;;;;22.99;73.04;100403.91;4149749;28;20080;-66
2023/06/21 02:12:49;;;;;;;13.18;11.00;;;;;;;22.98;73.07;100408.34;4130861;28;20040;-67
2023/06/21 02:14:52;;;;;;;17.05;10.82;;;;;;;22.97;73.30;100401.31;4146848;28;20533;-67
2023/06/21 02:16:55;;;;;;;14.27;11.38;;;;;;;23.01;73.07;100400.28;4163236;28;20068;-66
2023/06/21 02:19:00;;;;;;;10.65;9.55;;;;;;;23.06;73.06;100402.75;4148071;28;20044;-66
2023/06/21 02:21:03;;;;;;;;;;;;;;;23.02;73.14;100419.69;4143352;28;20045;-66
2023/06/21 02:23:06;;;;;;;19.23;13.13;;;;;;;23.05;73.04;100419.56;4146534;28;19944;-66
2023/06/21 02:25:10;;;;;;;15.07;12.80;;;;;;;23.02;72.84;100412.59;4166122;28;20080;-66
2023/06/21 02:27:13;;;;;;;15.25;11.50;;;;;;;22.97;73.06;100414.56;4144461;28;20260;-66
2023/06/21 02:29:16;;;;;;;18.73;14.27;;;;;;;22.99;72.71;100419.81;4147355;28;20045;-66
2023/06/21 02:31:19;;;;;;;13.60;10.25;;;;;;;22.94;72.94;100422.66;4145184;28;20040;-66
2023/06/21 02:33:22;;;;;;;11.07;9.60;;;;;;;22.97;73.13;100433.13;4125741;28;20089;-66
2023/06/21 02:35:26;;;;;;;13.48;12.00;;;;;;;23.04;73.39;100440.84;4146865;28;20033;-66
2023/06/21 02:37:29;;;;;;;;;;;;;;;22.97;73.52;100443.72;4129912;28;20452;-66
2023/06/21 02:39:32;;;;;;;12.63;10.73;;;;;;;22.98;73.53;100453.44;4146614;28;19968;-66
2023/06/21 02:41:35;;;;;;;12.00;10.65;;;;;;;23.05;73.51;100464.66;4148703;28;20124;-66
2023/06/21 02:43:38;;;;;;;11.40;10.20;;;;;;;23.06;73.53;100465.53;4148668;28;20034;-67
2023/06/21 02:45:40;;;;;;;12.85;10.73;;;;;;;23.14;73.27;100466.13;4148180;28;20116;-67
2023/06/21 02:47:44;;;;;;;13.05;11.52;;;;;;;23.23;72.82;100465.78;4147579;28;20115;-66
2023/06/21 02:49:47;;;;;;;13.60;11.80;;;;;;;23.26;72.81;100460.38;4144501;28;20038;-66
2023/06/21 02:51:51;;;;;;;14.15;10.70;;;;;;;23.29;72.47;100468.19;4146903;28;20505;-66
2023/06/21 02:53:54;;;;;;;13.85;10.95;;;;;;;23.23;72.78;100465.78;4146335;28;20144;-67
2023/06/21 02:55:57;;;;;;;12.90;9.40;;;;;;;23.23;72.88;100463.13;4145621;28;20038;-67
2023/06/21 02:58:00;;;;;;;14.30;10.43;;;;;;;23.26;72.57;100468.31;4155565;28;20097;-67
2023/06/21 03:00:17;;;;;;;14.77;11.52;;;;;;;23.29;72.52;100475.28;4143124;28;20061;-67
2023/06/21 03:02:21;;;;;;;13.70;9.88;;;;;;;23.29;72.34;100467.31;4143384;28;20042;-67
2023/06/21 03:04:24;;;;;;;10.73;9.38;;;;;;;23.27;72.57;100463.88;4144228;28;20033;-66
2023/06/21 03:06:29;;;;;;;12.95;10.23;;;;;;;23.26;72.53;100468.31;4160400;28;20061;-66
2023/06/21 03:08:33;;;;;;;11.05;9.90;;;;;;;23.23;72.76;100473.75;4140316;28;20053;-66
2023/06/21 03:10:36;;;;;;;11.15;9.05;;;;;;;23.26;72.57;100478.94;4142997;28;20299;-66
2023/06/21 03:12:42;;;;;;;10.80;9.10;;;;;;;23.29;72.22;100483.22;4156843;28;20033;-66
2023/06/21 03:14:47;;;;;;;12.50;9.90;;;;;;;23.31;72.00;100492.00;4158988;28;20041;-66
2023/06/21 03:16:50;;;;;;;14.20;12.70;;;;;;;23.34;71.95;100498.06;4127457;28;20058;-66
2023/06/21 03:18:53;;;;;;;13.45;12.07;;;;;;;23.33;72.00;100501.66;4162783;22;20041;-63
2023/06/21 03:21:01;;;;;;;12.00;10.43;;;;;;;23.29;72.15;100512.41;4164062;28;20060;-63
2023/06/21 03:23:05;;;;;;;16.02;11.20;;;;;;;23.18;72.44;100513.69;4150412;28;20167;-63
2023/06/21 03:25:10;;;;;;;16.73;14.45;;;;;;;23.12;72.54;100513.06;4142923;28;20076;-63
2023/06/21 03:27:15;;;;;;;13.30;11.18;;;;;;;23.03;72.40;100511.59;4161699;28;20068;-63
2023/06/21 03:29:17;;;;;;;13.55;12.13;;;;;;;23.01;72.60;100511.66;4145384;28;20037;-63
2023/06/21 03:31:21;;;;;;;16.77;15.00;;;;;;;23.02;72.66;100518.66;4145425;28;20040;-63
2023/06/21 03:33:24;;;;;;;12.60;10.20;;;;;;;23.02;72.56;100526.59;4148905;28;20100;-63
2023/06/21 03:35:29;;;;;;;14.15;10.20;;;;;;;22.90;73.15;100531.53;4144383;28;20053;-62
2023/06/21 03:37:32;;;;;;;16.50;11.05;;;;;;;22.88;73.37;100542.19;4164227;28;20083;-63
2023/06/21 03:39:35;;;;;;;14.52;12.75;;;;;;;22.90;73.46;100548.28;4146092;28;20129;-63
2023/06/21 03:41:39;;;;;;;14.77;12.77;;;;;;;22.81;73.86;100541.50;4147946;28;20397;-63
2023/06/21 03:43:42;;;;;;;;;;;;;;;22.68;74.29;100548.16;4165187;28;20052;-63
2023/06/21 03:45:48;;;;;;;13.70;11.13;;;;;;;22.75;74.22;100548.81;4156464;28;19953;-63
2023/06/21 03:47:51;;;;;;;17.00;14.00;;;;;;;22.80;74.00;100558.34;4160366;28;20044;-63
2023/06/21 03:49:57;;;;;;;14.75;11.88;;;;;;;22.72;74.07;100551.56;4147862;28;20052;-62
2023/06/21 03:52:01;;;;;;;12.27;10.20;;;;;;;22.75;74.02;100555.00;4144247;28;20578;-62
2023/06/21 03:54:04;;;;;;;15.10;12.43;;;;;;;22.79;73.84;100555.72;4159477;28;20061;-62
2023/06/21 03:56:07;;;;;;;17.75;14.10;;;;;;;22.85;74.08;100555.50;4162447;28;20065;-63
2023/06/21 03:58:13;;;;;;;16.30;13.43;;;;;;;22.86;74.13;100570.50;4144680;28;20041;-62
2023/06/21 04:00:16;;;;;;;15.98;12.68;;;;;;;22.90;74.02;100596.00;4147894;28;20109;-62
2023/06/21 04:02:24;;;;;;;18.30;13.23;;;;;;;22.75;74.10;100604.47;4161695;28;20044;-63
2023/06/21 04:04:29;;;;;;;15.02;13.00;;;;;;;22.56;74.30;100607.75;4146509;28;20450;-63
2023/06/21 04:06:32;;;;;;;16.23;13.57;;;;;;;22.46;74.19;100608.97;4146477;28;20470;-62
2023/06/21 04:08:35;;;;;;;12.85;10.80;;;;;;;22.44;74.36;100589.59;4145381;28;20157;-63
2023/06/21 04:10:39;;;;;;;16.83;12.48;;;;;;;22.49;74.09;100582.38;4146824;28;20115;-62
2023/06/21 04:12:42;;;;;;;19.02;14.50;;;;;;;22.51;74.01;100579.69;4147828;28;20496;-63
2023/06/21 04:14:46;;;;;;;17.60;11.35;;;;;;;22.49;73.66;100579.72;4144588;28;20042;-63
2023/06/21 04:16:49;;;;;;;13.10;11.18;;;;;;;22.47;73.50;100586.84;4145636;28;20598;-63
2023/06/21 04:18:52;;;;;;;18.05;12.32;;;;;;;22.41;72.50;100579.97;4145621;28;20061;-63
2023/06/21 04:20:55;;;;;;;9.73;8.60;;;;;;;22.47;72.87;100584.19;4161073;28;20083;-63
2023/06/21 04:22:58;;;;;;;11.77;10.00;;;;;;;22.55;72.52;100583.97;4157819;28;20414;-62
2023/06/21 04:25:01;;;;;;;10.82;9.73;;;;;;;22.54;72.34;100577.78;4145267;28;20034;-63
2023/06/21 04:27:59;;;;;;;12.77;9.70;;;;;;;22.55;72.27;100578.66;4151135;28;20864;-63
2023/06/21 04:30:06;;;;;;;13.10;11.68;;;;;;;22.63;71.69;100572.19;4165099;28;20045;-63
2023/06/21 04:32:09;;;;;;;17.55;11.05;;;;;;;22.58;71.44;100562.66;4148107;28;20484;-63
2023/06/21 04:34:12;;;;;;;13.43;10.75;;;;;;;22.58;71.33;100552.06;4151060;28;20054;-62
2023/06/21 04:36:17;;;;;;;16.27;11.57;;;;;;;22.70;71.56;100548.13;4152301;28;20037;-63
2023/06/21 04:38:20;;;;;;;14.90;9.98;;;;;;;22.74;71.51;100547.09;4163979;28;20076;-62
2023/06/21 04:40:23;;;;;;;8.95;7.93;;;;;;;22.81;71.42;100538.00;4151627;28;20038;-63
2023/06/21 04:42:29;;;;;;;12.75;9.05;;;;;;;22.84;71.18;100528.16;4145823;28;20050;-63
2023/06/21 04:44:32;;;;;;;11.93;9.05;;;;;;;22.83;70.93;100507.00;4150784;28;20033;-63
2023/06/21 04:46:36;;;;;;;15.80;12.43;;;;;;;22.97;69.34;100482.66;4146913;28;20113;-62
2023/06/21 04:48:39;;;;;;;15.57;10.73;;;;;;;22.75;70.18;100471.94;4146218;28;20088;-63
2023/06/21 04:50:45;;;;;;;10.00;7.75;;;;;;;22.61;71.43;100477.75;4133047;28;20052;-63
2023/06/21 04:52:48;;;;;;;11.82;8.35;;;;;;;22.67;71.42;100493.44;4146570;28;20483;-63
2023/06/21 04:54:52;;;;;;;11.70;8.90;;;;;;;22.64;71.58;100493.53;4145072;28;20045;-63
2023/06/21 04:56:58;;;;;;;12.13;9.57;;;;;;;22.63;71.86;100489.16;4159194;28;20064;-63
2023/06/21 04:59:00;;;;;;;14.57;8.73;;;;;;;22.62;71.83;100498.91;4144794;28;20132;-63
2023/06/21 05:01:03;;;;;;;15.23;9.70;;;;;;;22.69;71.77;100510.13;4147566;28;20058;-63
2023/06/21 05:03:08;;;;;;;9.57;7.82;;;;;;;22.74;71.86;100499.38;4150842;28;20045;-63
2023/06/21 05:05:11;;;;;;;11.15;9.43;;;;;;;22.83;71.74;100491.94;4161511;28;20056;-63
2023/06/21 05:07:13;;;;;;;13.18;9.63;;;;;;;22.94;71.24;100475.66;4146885;28;20630;-63
2023/06/21 05:09:16;;;;;;;11.93;8.35;;;;;;;22.98;70.96;100477.28;4164495;28;20029;-63
2023/06/21 05:11:19;;;;;;;16.30;10.63;;;;;;;23.12;70.62;100499.81;4157566;28;20076;-63
2023/06/21 05:13:22;;;;;;;9.23;7.45;;;;;;;23.10;70.48;100520.16;4147482;28;20042;-63
2023/06/21 05:15:25;;;;;;;14.82;11.15;;;;;;;23.11;69.47;100536.03;4148108;28;20486;-63
2023/06/21 05:17:28;;;;;;;10.50;8.05;;;;;;;22.93;70.12;100547.31;4150107;28;20415;-63
2023/06/21 05:19:32;;;;;;;11.30;9.63;;;;;;;22.80;70.75;100568.09;4146423;28;20045;-56
2023/06/21 05:21:35;;;;;;;;;;;;;;;22.81;71.12;100578.63;4150517;28;20453;-70
2023/06/21 05:23:38;;;;;;;15.57;11.18;;;;;;;22.93;71.48;100582.63;4146203;28;19960;-70
2023/06/21 05:25:40;;;;;;;10.85;8.05;;;;;;;22.91;71.62;100588.91;4151381;28;20454;-68
2023/06/21 05:27:43;;;;;;;13.10;9.45;;;;;;;22.83;71.34;100589.16;4142322;28;20116;-69
2023/06/21 05:29:46;;;;;;;12.32;10.48;;;;;;;22.69;71.88;100586.97;4145985;28;20046;-69
2023/06/21 05:31:49;;;;;;;14.35;9.38;;;;;;;22.63;71.03;100582.78;4159466;28;20045;-69
2023/06/21 05:33:52;;;;;;;15.43;10.70;;;;;;;22.47;71.60;100584.19;4180365;28;20049;-69
2023/06/21 05:35:56;;;;;;;10.52;9.32;;;;;;;22.35;72.15;100584.63;4158924;28;20411;-68
2023/06/21 05:37:59;;;;;;;16.45;9.60;;;;;;;22.27;72.68;100591.00;4148898;28;20037;-69
2023/06/21 05:40:02;;;;;;;11.52;9.80;;;;;;;22.30;73.42;100587.38;4148893;28;20412;-69
2023/06/21 05:42:06;;;;;;;13.73;11.05;;;;;;;22.31;73.71;100590.00;4147584;28;20084;-69
2023/06/21 05:44:10;;;;;;;13.27;9.98;;;;;;;22.38;73.41;100597.75;4151790;28;20133;-69
2023/06/21 05:46:13;;;;;;;11.35;9.18;;;;;;;22.38;73.52;100617.16;4165210;28;20498;-69
2023/06/21 05:48:16;;;;;;;11.65;9.00;;;;;;;22.40;73.62;100622.41;4157497;28;20048;-69
2023/06/21 05:50:19;;;;;;;12.65;9.13;;;;;;;22.43;73.04;100614.38;4148831;28;20053;-69
2023/06/21 05:52:23;;;;;;;13.52;10.05;;;;;;;22.48;72.93;100612.44;4148635;28;20080;-69
2023/06/21 05:54:26;;;;;;;11.68;9.57;;;;;;;22.46;72.83;100619.56;4148328;28;20049;-69
2023/06/21 05:56:31;;;;;;;12.63;11.10;;;;;;;22.49;73.13;100614.19;4147532;28;20069;-70
2023/06/21 05:58:34;;;;;;;13.10;9.50;;;;;;;22.60;73.04;100612.00;4148626;28;20495;-69
2023/06/21 06:00:37;;;;;;;10.82;9.48;;;;;;;22.80;71.78;100619.28;4145541;28;20065;-69
2023/06/21 06:02:40;;;;;;;18.10;10.07;;;;;;;22.88;71.59;100623.47;4151157;28;20041;-69
2023/06/21 06:04:43;;;;;;;15.43;11.50;;;;;;;23.02;71.41;100629.16;4149774;28;20038;-70
2023/06/21 06:06:46;;;;;;;14.90;11.93;;;;;;;23.13;71.39;100620.84;4142572;28;20069;-70
2023/06/21 06:08:50;;;;;;;15.90;12.95;;;;;;;23.14;70.26;100622.59;4151801;28;20059;-70
2023/06/21 06:10:54;;;;;;;10.93;9.45;;;;;;;23.20;70.47;100626.81;4163358;28;20044;-69
2023/06/21 06:12:57;;;;;;;13.43;9.87;;;;;;;23.17;69.84;100630.44;4148069;28;20057;-69
2023/06/21 06:15:00;;;;;;;16.92;10.00;;;;;;;23.25;69.73;100632.84;4145234;28;20397;-69
2023/06/21 06:17:03;;;;;;;12.60;10.10;;;;;;;23.32;69.70;100629.91;4148810;28;20056;-70
2023/06/21 06:19:06;;;;;;;16.88;10.85;;;;;;;23.44;69.26;100625.06;4146042;28;20045;-69
2023/06/21 06:21:09;;;;;;;11.55;10.45;;;;;;;23.56;69.22;100629.06;4149206;28;20125;-69
2023/06/21 06:23:13;;;;;;;15.35;10.85;;;;;;;23.60;68.50;100628.88;4147833;28;20527;-69
2023/06/21 06:25:17;;;;;;;10.85;8.65;;;;;;;23.74;68.83;100636.31;4145737;28;20050;-71
2023/06/21 06:27:20;;;;;;;14.55;10.32;;;;;;;23.84;68.11;100634.19;4153433;28;20041;-69
2023/06/21 06:29:23;;;;;;;17.77;10.90;;;;;;;23.87;68.07;100639.41;4148387;28;20029;-69
2023/06/21 06:31:29;;;;;;;13.15;9.77;;;;;;;23.98;67.35;100641.66;4150176;28;20534;-69
2023/06/21 06:33:32;;;;;;;11.60;8.93;;;;;;;24.06;67.22;100652.84;4158381;28;20522;-70
2023/06/21 06:35:35;;;;;;;10.48;8.48;;;;;;;24.11;67.59;100660.63;4163304;28;20033;-69
2023/06/21 06:37:38;;;;;;;13.95;9.07;;;;;;;24.22;67.08;100653.09;4148707;28;20407;-69
2023/06/21 06:39:41;;;;;;;9.88;8.15;;;;;;;24.29;66.64;100659.91;4147934;28;20052;-69
2023/06/21 06:41:45;;;;;;;10.97;7.53;;;;;;;24.36;66.85;100665.84;4148088;28;20443;-68
2023/06/21 06:43:51;;;;;;;13.70;9.82;;;;;;;24.51;66.23;100662.56;4147778;28;20359;-68
2023/06/21 06:45:54;;;;;;;10.43;8.65;;;;;;;24.45;66.23;100664.63;4148040;28;20042;-68
2023/06/21 06:47:57;;;;;;;12.35;8.25;;;;;;;24.39;67.05;100663.91;4146697;28;20038;-69
2023/06/21 06:50:02;;;;;;;10.90;9.00;;;;;;;24.55;65.45;100664.16;4131667;28;20047;-69
2023/06/21 06:52:06;;;;;;;10.60;8.73;;;;;;;24.46;65.71;100661.00;4137709;28;20133;-69
2023/06/21 06:54:09;;;;;;;12.32;9.05;;;;;;;24.43;66.44;100663.78;4162885;28;20079;-69
2023/06/21 06:56:12;;;;;;;9.52;7.55;;;;;;;24.43;65.89;100658.47;4159057;28;20049;-69
2023/06/21 06:58:16;;;;;;;10.63;7.47;;;;;;;24.54;65.32;100658.91;4162349;28;20038;-69
2023/06/21 07:00:19;;;;;;;10.40;7.93;;;;;;;24.69;65.16;100662.75;4142101;28;20048;-69
2023/06/21 07:02:22;;;;;;;10.68;7.97;;;;;;;24.70;64.50;100667.16;4144349;28;20039;-69
2023/06/21 07:04:28;;;;;;;12.20;7.50;;;;;;;24.69;65.06;100671.63;4148857;28;20069;-69
2023/06/21 07:06:31;;;;;;;10.95;7.30;;;;;;;24.67;65.21;100683.25;4164849;28;20088;-69
2023/06/21 07:08:34;;;;;;;8.70;6.15;;;;;;;24.63;65.70;100682.47;4146312;28;20045;-69
2023/06/21 07:10:37;;;;;;;10.50;7.43;;;;;;;24.59;64.99;100680.91;4147986;28;20034;-68
2023/06/21 07:12:40;;;;;;;13.93;8.55;;;;;;;24.57;65.88;100683.59;4148014;28;20065;-69
2023/06/21 07:14:44;;;;;;;11.75;7.60;;;;;;;24.57;66.34;100678.28;4141546;28;20069;-69
2023/06/21 07:16:50;;;;;;;11.68;7.60;;;;;;;24.62;66.01;100685.22;4148171;28;20103;-69
2023/06/21 07:18:53;;;;;;;9.05;6.45;;;;;;;24.57;65.49;100685.38;4146728;28;20042;-69
2023/06/21 07:20:56;;;;;;;9.57;6.32;;;;;;;24.62;65.75;100682.56;4160517;28;20038;-69
2023/06/21 07:22:59;;;;;;;10.35;6.70;;;;;;;24.72;66.19;100679.47;4163192;28;20056;-69
2023/06/21 07:25:02;;;;;;;12.70;7.75;;;;;;;24.72;65.93;100679.47;4165634;28;20048;-69
2023/06/21 07:27:05;;;;;;;13.73;7.25;;;;;;;24.74;65.77;100684.72;4143294;28;20038;-69
2023/06/21 07:29:08;;;;;;;10.60;6.65;;;;;;;24.90;65.40;100685.81;4140330;28;20419;-69
2023/06/21 07:31:12;;;;;;;12.43;6.93;;;;;;;25.01;64.17;100681.81;4142231;28;20050;-69
2023/06/21 07:33:15;;;;;;;;;;;;;;;24.98;64.50;100680.16;4169949;28;20041;-69
2023/06/21 07:35:19;;;;;;;8.02;5.65;;;;;;;25.16;64.01;100669.66;4169125;28;19921;-69
2023/06/21 07:37:21;;;;;;;14.05;7.15;;;;;;;25.44;62.75;100664.03;4148838;28;20150;-69
2023/06/21 07:39:24;;;;;;;8.15;5.50;;;;;;;25.61;61.44;100657.94;4145812;28;20152;-69
2023/06/21 07:41:27;;;;;;;8.18;5.63;;;;;;;25.52;61.70;100666.34;4147112;28;20062;-69
2023/06/21 07:43:30;;;;;;;9.35;6.22;;;;;;;25.52;61.39;100663.69;4153328;28;20112;-69
2023/06/21 07:45:33;;;;;;;14.27;6.50;;;;;;;25.50;61.34;100660.22;4146180;28;20061;-69
2023/06/21 07:47:38;;;;;;;8.50;5.88;;;;;;;25.42;61.33;100660.56;4145341;28;20044;-69
2023/06/21 07:49:41;;;;;;;7.50;5.22;;;;;;;25.42;61.97;100660.56;4147851;28;20088;-69
2023/06/21 07:51:44;;;;;;;8.88;5.38;;;;;;;25.53;61.50;100652.09;4146720;28;20046;-68
2023/06/21 07:53:47;;;;;;;9.07;5.95;;;;;;;25.61;61.12;100652.59;4134413;28;20120;-69
2023/06/21 07:55:50;;;;;;;11.10;5.88;;;;;;;25.69;60.69;100653.13;4148682;28;20049;-69
2023/06/21 07:58:18;;;;;;;12.15;6.00;;;;;;;25.62;60.58;100643.69;4143235;28;20041;-67
2023/06/21 08:00:21;;;;;;;8.00;6.00;;;;;;;25.51;60.92;100641.53;4095371;28;20142;-69
2023/06/21 08:03:14;;;;;;;8.02;5.50;;;;;;;25.39;61.63;100634.97;4114859;28;20055;-68
2023/06/21 08:05:18;;;;;;;7.20;5.40;;;;;;;25.22;62.07;100645.47;4117247;28;20047;-68
2023/06/21 08:07:21;;;;;;;;;;;;;;;25.13;62.50;100641.41;4106482;28;20186;-69
2023/06/21 08:09:26;;;;;;;7.72;5.70;;;;;;;25.18;61.90;100641.19;4116053;28;20380;-69
2023/06/21 08:11:54;;;;;;;7.30;5.57;;;;;;;25.60;61.78;100643.75;4115798;28;20051;-68
2023/06/21 08:13:57;;;;;;;6.85;5.93;;;;;;;25.83;60.77;100641.84;4111010;28;20496;-69
2023/06/21 08:16:00;;;;;;;9.13;5.90;;;;;;;26.02;60.21;100646.31;4101492;28;20039;-68
2023/06/21 08:18:02;;;;;;;10.43;5.95;;;;;;;26.02;59.68;100649.88;4116561;28;20054;-67
2023/06/21 08:20:07;;;;;;;9.13;6.10;;;;;;;25.94;59.90;100660.84;4116672;28;20047;-67
2023/06/21 08:22:11;;;;;;;9.13;6.00;;;;;;;25.98;59.24;100666.00;4113144;28;20052;-68
2023/06/21 08:24:13;;;;;;;;;;;;;;;26.05;59.05;100665.72;4113367;28;20055;-68
2023/06/21 08:26:16;;;;;;;10.25;6.22;;;;;;;26.12;59.64;100669.81;4100224;28;19923;-68
2023/06/21 08:28:19;;;;;;;8.00;5.90;;;;;;;26.18;59.74;100678.44;4110193;28;20544;-68
2023/06/21 08:30:22;;;;;;;7.32;6.03;;;;;;;26.25;59.69;100690.53;4112849;28;20061;-68
2023/06/21 08:32:35;;;;;;;7.93;5.10;;;;;;;26.26;59.87;100684.28;4100767;28;20059;-68
2023/06/21 08:34:38;;;;;;;8.38;5.47;;;;;;;26.18;59.31;100694.44;4112773;28;20043;-68
2023/06/21 08:36:41;;;;;;;9.65;6.35;;;;;;;26.10;58.93;100690.31;4079253;29;20039;-68
2023/06/21 08:38:45;;;;;;;12.38;6.05;;;;;;;26.06;58.51;100694.06;4142549;28;20049;-68
2023/06/21 08:40:48;;;;;;;7.80;6.03;;;;;;;25.99;58.41;100697.91;4147333;28;20444;-68
2023/06/21 08:42:51;;;;;;;7.35;5.05;;;;;;;25.94;58.37;100702.59;4149967;28;20068;-67
2023/06/21 08:44:55;;;;;;;7.35;4.90;;;;;;;25.94;58.92;100702.59;4150046;28;20088;-67
2023/06/21 08:47:00;;;;;;;6.43;4.72;;;;;;;25.92;59.08;100718.66;4162783;28;20045;-68
2023/06/21 08:49:06;;;;;;;8.82;5.13;;;;;;;25.85;58.31;100722.53;4149977;28;20042;-68
2023/06/21 08:51:09;;;;;;;10.50;6.75;;;;;;;25.88;60.17;100716.22;4149921;28;20049;-68
2023/06/21 08:53:15;;;;;;;5.93;4.95;;;;;;;25.79;60.07;100723.66;4147730;28;20033;-67
2023/06/21 08:55:23;;;;;;;8.13;5.18;;;;;;;25.51;59.04;100717.84;4131732;28;20622;-68
2023/06/21 08:57:30;;;;;;;8.40;5.82;;;;;;;25.50;59.23;100716.13;4144509;28;20125;-68
2023/06/21 08:59:39;;;;;;;6.93;4.65;;;;;;;25.57;59.90;100715.78;4158457;28;20050;-68
2023/06/21 09:01:49;;;;;;;9.90;6.10;;;;;;;25.70;59.93;100713.44;4149031;28;20125;-68
2023/06/21 09:03:56;;;;;;;8.43;4.88;;;;;;;25.81;59.74;100709.44;4148542;28;20579;-68
2023/06/21 09:06:04;;;;;;;7.05;5.40;;;;;;;25.92;58.57;100707.16;4148215;28;20037;-68
2023/06/21 09:08:08;;;;;;;7.45;5.50;;;;;;;25.94;57.53;100705.25;4151456;28;20129;-68
2023/06/21 09:10:15;;;;;;;7.30;5.43;;;;;;;25.90;57.96;100701.00;4146227;28;20071;-68
2023/06/21 09:12:19;;;;;;;6.15;4.72;;;;;;;25.95;58.23;100696.34;4148880;28;20057;-69
2023/06/21 09:14:22;;;;;;;;;;;;;;;26.12;58.86;100693.78;4143594;28;20120;-69
2023/06/21 09:16:26;;;;;;;8.07;6.43;;;;;;;26.21;57.43;100696.94;4144095;28;19921;-69
2023/06/21 09:18:35;;;;;;;7.65;6.60;;;;;;;26.27;57.64;100702.00;4149207;28;20061;-68
2023/06/21 09:20:39;;;;;;;8.05;6.38;;;;;;;26.43;57.10;100697.66;4201492;22;20036;-70
2023/06/21 09:22:44;;;;;;;7.93;6.75;;;;;;;26.47;56.64;100703.69;4161910;28;20644;-69
2023/06/21 09:24:46;;;;;;;7.10;5.50;;;;;;;26.26;58.13;100701.13;4174793;28;20050;-69
2023/06/21 09:26:49;;;;;;;7.72;6.30;;;;;;;26.24;58.58;100707.44;4192761;28;20040;-69
2023/06/21 09:28:54;;;;;;;8.05;6.00;;;;;;;26.35;57.18;100709.63;4192538;28;20063;-69
2023/06/21 09:30:56;;;;;;;;;;;;;;;26.27;57.77;100710.00;4175747;28;20127;-70
2023/06/21 09:32:59;;;;;;;8.48;6.22;;;;;;;26.13;57.15;100700.84;4191069;28;19950;-69
2023/06/21 09:35:03;;;;;;;8.05;6.63;;;;;;;26.02;57.52;100719.13;4194187;28;20036;-69